createdAt,value
2024-05-09T00:00:59.485Z,18.10
2024-05-09T00:03:30.100Z,18.10
2024-05-09T00:06:00.951Z,18.10
2024-05-09T00:08:31.645Z,18.20
2024-05-09T00:11:03.150Z,18.20
2024-05-09T00:13:33.731Z,18.20
2024-05-09T00:16:05.648Z,18.20
2024-05-09T00:18:36.332Z,18.20
2024-05-09T00:21:10.310Z,18.10
2024-05-09T00:23:40.874Z,18.20
2024-05-09T00:26:14.615Z,18.30
2024-05-09T00:28:45.192Z,18.30
2024-05-09T00:31:15.754Z,18.30
2024-05-09T00:33:46.432Z,18.30
2024-05-09T00:36:19.977Z,18.20
2024-05-09T00:38:50.553Z,18.10
2024-05-09T00:41:21.215Z,18.00
2024-05-09T00:43:51.756Z,18.00
2024-05-09T00:46:23.400Z,18.00
2024-05-09T00:48:54.086Z,18.00
2024-05-09T00:51:26.472Z,18.00
2024-05-09T00:53:57.319Z,18.10
2024-05-09T00:56:29.890Z,18.30
2024-05-09T00:59:00.600Z,18.30
2024-05-09T01:01:33.550Z,18.30
2024-05-09T01:04:04.296Z,18.20
2024-05-09T01:06:35.055Z,18.00
2024-05-09T01:09:08.479Z,17.80
2024-05-09T01:11:44.149Z,17.80
2024-05-09T01:14:16.733Z,17.90
2024-05-09T01:16:51.020Z,17.70
2024-05-09T01:19:31.540Z,17.60
2024-05-09T01:22:02.701Z,17.90
2024-05-09T01:24:33.316Z,17.90
2024-05-09T01:27:04.694Z,18.10
2024-05-09T01:29:35.265Z,18.10
2024-05-09T01:32:07.724Z,18.10
2024-05-09T01:34:38.287Z,18.30
2024-05-09T01:37:08.873Z,18.50
2024-05-09T01:39:39.419Z,18.50
2024-05-09T01:42:10.035Z,18.60
2024-05-09T01:44:40.669Z,18.70
2024-05-09T01:47:12.169Z,18.80
2024-05-09T01:49:43.780Z,18.90
2024-05-09T01:52:14.445Z,18.90
2024-05-09T01:54:44.998Z,18.90
2024-05-09T01:57:17.925Z,18.80
2024-05-09T01:59:48.383Z,18.80
2024-05-09T02:02:22.223Z,18.80
2024-05-09T02:04:52.898Z,18.90
2024-05-09T02:07:23.637Z,18.90
2024-05-09T02:09:56.934Z,18.90
2024-05-09T02:12:27.636Z,19.00
2024-05-09T02:14:59.614Z,19.10
2024-05-09T02:17:32.103Z,19.10
2024-05-09T02:20:02.881Z,19.20
2024-05-09T02:22:36.692Z,19.30
2024-05-09T02:25:07.347Z,19.50
2024-05-09T02:27:39.286Z,19.50
2024-05-09T02:30:18.731Z,19.70
2024-05-09T02:32:58.520Z,19.70
2024-05-09T02:35:29.656Z,19.70
2024-05-09T02:38:01.320Z,19.70
2024-05-09T02:40:37.018Z,19.60
2024-05-09T02:43:19.976Z,19.40
2024-05-09T02:45:50.452Z,19.60
2024-05-09T02:48:22.162Z,19.60
2024-05-09T02:50:54.215Z,19.60
2024-05-09T02:53:24.774Z,19.70
2024-05-09T02:55:55.343Z,19.70
2024-05-09T02:58:32.096Z,19.60
2024-05-09T03:01:02.683Z,19.70
2024-05-09T03:03:33.594Z,19.80
2024-05-09T03:06:05.449Z,19.90
2024-05-09T03:08:36.172Z,20.00
2024-05-09T03:11:06.926Z,20.00
2024-05-09T03:13:37.627Z,20.00
2024-05-09T03:16:08.882Z,20.10
2024-05-09T03:18:44.563Z,19.90
2024-05-09T03:21:15.151Z,19.90
2024-05-09T03:23:46.391Z,20.00
2024-05-09T03:26:18.832Z,20.30
2024-05-09T03:28:49.659Z,20.40
2024-05-09T03:31:24.849Z,20.50
2024-05-09T03:33:56.175Z,20.80
2024-05-09T03:36:26.691Z,20.80
2024-05-09T03:38:59.618Z,20.90
2024-05-09T03:41:30.260Z,21.00
2024-05-09T03:44:06.763Z,21.10
2024-05-09T03:46:44.124Z,21.10
2024-05-09T03:49:15.744Z,21.20
2024-05-09T03:51:46.453Z,21.20
2024-05-09T03:54:18.038Z,21.30
2024-05-09T03:56:48.620Z,21.20
2024-05-09T03:59:20.068Z,20.70
2024-05-09T04:01:51.246Z,21.70
2024-05-09T04:04:31.479Z,21.40
2024-05-09T04:07:01.966Z,21.60
2024-05-09T04:09:33.539Z,21.50
2024-05-09T04:12:04.202Z,21.60
2024-05-09T04:14:38.811Z,21.70
2024-05-09T04:17:14.877Z,21.90
2024-05-09T04:19:49.574Z,21.90
2024-05-09T04:22:20.208Z,21.70
2024-05-09T04:24:50.969Z,21.50
2024-05-09T04:27:21.658Z,21.50
2024-05-09T04:29:52.800Z,21.60
2024-05-09T04:32:23.440Z,21.80
2024-05-09T04:34:54.274Z,21.80
2024-05-09T04:37:25.213Z,21.80
2024-05-09T04:40:01.171Z,21.80
2024-05-09T04:42:31.950Z,22.00
2024-05-09T04:45:02.566Z,22.20
2024-05-09T04:47:33.099Z,22.30
2024-05-09T04:50:08.815Z,22.30
2024-05-09T04:52:42.030Z,22.50
2024-05-09T04:55:12.941Z,22.50
2024-05-09T04:57:43.435Z,22.80
2024-05-09T05:00:21.750Z,22.60
2024-05-09T05:02:59.464Z,22.90
2024-05-09T05:05:34.877Z,23.10
2024-05-09T05:08:05.592Z,23.40
2024-05-09T05:10:45.622Z,23.60
2024-05-09T05:13:26.109Z,23.70
2024-05-09T05:15:59.741Z,23.90
2024-05-09T05:18:32.423Z,23.90
2024-05-09T05:21:03.484Z,23.90
2024-05-09T05:23:34.215Z,24.20
2024-05-09T05:26:04.772Z,24.20
2024-05-09T05:28:35.427Z,24.10
2024-05-09T05:31:09.944Z,24.00
2024-05-09T05:33:40.772Z,24.00
2024-05-09T05:36:12.387Z,24.40
2024-05-09T05:38:43.066Z,24.30
2024-05-09T05:41:13.782Z,24.30
2024-05-09T05:43:44.547Z,24.40
2024-05-09T05:46:15.191Z,24.50
2024-05-09T05:48:45.946Z,24.60
2024-05-09T05:51:16.683Z,24.70
2024-05-09T05:53:47.352Z,24.50
2024-05-09T05:56:23.298Z,24.50
2024-05-09T05:58:53.915Z,24.70
2024-05-09T06:01:24.487Z,24.70
2024-05-09T06:03:55.829Z,24.60
2024-05-09T06:06:27.268Z,24.50
2024-05-09T06:08:58.215Z,24.50
2024-05-09T06:11:28.961Z,24.50
2024-05-09T06:14:03.568Z,24.50
2024-05-09T06:16:34.871Z,24.40
2024-05-09T06:19:05.502Z,23.90
2024-05-09T06:21:37.005Z,24.00
2024-05-09T06:24:07.926Z,24.40
2024-05-09T06:26:39.342Z,24.60
2024-05-09T06:29:10.357Z,24.70
2024-05-09T06:31:47.873Z,24.80
2024-05-09T06:34:21.776Z,25.10
2024-05-09T06:36:52.436Z,25.20
2024-05-09T06:39:22.949Z,25.40
2024-05-09T06:41:54.041Z,25.30
2024-05-09T06:44:29.061Z,25.20
2024-05-09T06:47:00.567Z,25.00
2024-05-09T06:49:32.125Z,25.00
2024-05-09T06:52:02.899Z,24.80
2024-05-09T06:54:33.498Z,24.80
2024-05-09T06:57:04.270Z,24.90
2024-05-09T06:59:34.989Z,24.90
2024-05-09T07:02:09.990Z,24.90
2024-05-09T07:04:40.695Z,24.90
2024-05-09T07:07:11.597Z,25.10
2024-05-09T07:09:42.047Z,25.30
2024-05-09T07:12:17.031Z,25.30
2024-05-09T07:14:49.385Z,25.60
2024-05-09T07:17:22.150Z,25.20
2024-05-09T07:19:53.723Z,25.10
2024-05-09T07:22:31.168Z,25.10
2024-05-09T07:25:01.842Z,25.30
2024-05-09T07:27:32.402Z,25.40
2024-05-09T07:30:05.422Z,25.50
2024-05-09T07:32:36.191Z,25.20
2024-05-09T07:35:06.846Z,25.10
2024-05-09T07:37:38.165Z,25.50
2024-05-09T07:40:12.074Z,25.50
2024-05-09T07:42:45.358Z,25.50
2024-05-09T07:45:38.937Z,25.70
2024-05-09T07:53:37.948Z,25.80
2024-05-09T07:56:08.680Z,25.70
2024-05-09T07:58:40.231Z,25.60
2024-05-09T08:01:10.846Z,25.50
2024-05-09T08:03:41.867Z,25.40
2024-05-09T08:06:12.562Z,25.50
2024-05-09T08:08:43.293Z,25.60
2024-05-09T08:11:13.939Z,25.40
2024-05-09T08:13:47.812Z,25.50
2024-05-09T08:16:19.606Z,25.30
2024-05-09T08:18:55.450Z,25.20
2024-05-09T08:21:27.018Z,25.20
2024-05-09T08:23:58.599Z,25.20
2024-05-09T08:26:29.324Z,25.00
2024-05-09T08:29:00.020Z,25.00
2024-05-09T08:31:30.581Z,25.00
2024-05-09T08:34:03.788Z,25.00
2024-05-09T08:36:34.729Z,25.00
2024-05-09T08:39:11.104Z,25.20
2024-05-09T08:41:47.811Z,25.10
2024-05-09T08:44:23.621Z,25.10
2024-05-09T08:46:58.912Z,25.10
2024-05-09T08:49:37.667Z,25.20
2024-05-09T08:52:16.510Z,25.30
2024-05-09T08:54:52.302Z,25.40
2024-05-09T08:57:24.911Z,25.40
2024-05-09T08:59:57.141Z,25.30
2024-05-09T09:02:28.212Z,25.20
2024-05-09T09:05:21.819Z,25.20
2024-05-09T09:07:53.840Z,24.90
2024-05-09T09:10:31.628Z,24.70
2024-05-09T09:13:06.613Z,24.50
2024-05-09T09:15:44.384Z,24.20
2024-05-09T09:18:18.502Z,24.00
2024-05-09T09:20:58.423Z,23.80
2024-05-09T09:23:32.226Z,23.50
2024-05-09T09:26:03.408Z,23.50
2024-05-09T09:28:38.628Z,23.20
2024-05-09T09:31:11.513Z,23.00
2024-05-09T09:33:45.967Z,22.80
2024-05-09T09:36:16.691Z,22.90
2024-05-09T09:38:48.937Z,22.90
2024-05-09T09:41:22.313Z,23.00
2024-05-09T09:43:53.456Z,23.00
2024-05-09T09:46:30.179Z,23.10
2024-05-09T09:49:03.539Z,23.20
2024-05-09T09:51:36.544Z,23.30
2024-05-09T09:54:08.693Z,23.40
2024-05-09T09:56:43.283Z,23.50
2024-05-09T09:59:16.573Z,23.60
2024-05-09T10:01:50.549Z,23.60
2024-05-09T10:04:21.857Z,23.50
2024-05-09T10:07:00.707Z,23.30
2024-05-09T10:09:31.775Z,23.10
2024-05-09T10:12:19.616Z,23.10
2024-05-09T10:14:59.773Z,23.00
2024-05-09T10:17:30.740Z,22.90
2024-05-09T10:20:18.454Z,23.00
2024-05-09T10:22:55.908Z,23.00
2024-05-09T10:25:29.822Z,22.90
2024-05-09T10:28:06.986Z,22.90
2024-05-09T10:30:38.170Z,22.90
2024-05-09T10:33:13.615Z,22.90
2024-05-09T10:35:54.296Z,22.90
2024-05-09T10:38:24.972Z,22.90
2024-05-09T10:41:01.388Z,22.90
2024-05-09T10:43:34.430Z,22.90
2024-05-09T10:46:05.085Z,22.80
2024-05-09T10:48:37.972Z,22.80
2024-05-09T10:51:08.777Z,22.90
2024-05-09T10:53:51.117Z,23.00
2024-05-09T10:56:21.755Z,23.00
2024-05-09T10:58:55.361Z,23.10
2024-05-09T11:01:26.548Z,23.10
2024-05-09T11:04:01.542Z,23.00
2024-05-09T11:06:32.584Z,23.20
2024-05-09T11:09:04.009Z,23.10
2024-05-09T11:11:35.679Z,22.90
2024-05-09T11:14:17.905Z,22.60
2024-05-09T11:17:02.427Z,22.10
2024-05-09T11:19:55.249Z,22.20
2024-05-09T11:22:29.844Z,22.00
2024-05-09T11:25:01.230Z,21.90
2024-05-09T11:27:31.791Z,21.90
2024-05-09T11:30:04.495Z,22.10
2024-05-09T11:32:39.956Z,22.00
2024-05-09T11:35:11.609Z,22.00
2024-05-09T11:37:47.584Z,21.90
2024-05-09T11:40:28.267Z,22.00
2024-05-09T11:43:02.995Z,22.10
2024-05-09T11:45:33.737Z,22.10
2024-05-09T11:48:06.211Z,22.20
2024-05-09T11:50:40.850Z,22.30
2024-05-09T11:53:13.889Z,22.30
2024-05-09T11:55:48.987Z,22.40
2024-05-09T11:58:19.750Z,22.50
2024-05-09T12:00:51.201Z,22.50
2024-05-09T12:03:22.881Z,22.60
2024-05-09T12:05:55.411Z,22.50
2024-05-09T12:08:28.570Z,22.60
2024-05-09T12:10:59.391Z,22.60
2024-05-09T12:13:30.999Z,22.80
2024-05-09T12:16:02.390Z,22.80
2024-05-09T12:18:36.125Z,22.90
2024-05-09T12:21:07.038Z,22.80
2024-05-09T12:23:38.623Z,22.80
2024-05-09T12:26:10.163Z,22.70
2024-05-09T12:28:40.826Z,22.70
2024-05-09T12:31:12.280Z,22.80
2024-05-09T12:33:42.849Z,22.70
2024-05-09T12:36:14.282Z,22.70
2024-05-09T12:38:44.875Z,22.70
2024-05-09T12:41:16.735Z,22.70
2024-05-09T12:43:47.776Z,22.70
2024-05-09T12:46:18.530Z,22.70
2024-05-09T12:48:50.318Z,22.70
2024-05-09T12:51:21.446Z,22.70
2024-05-09T12:53:54.942Z,22.80
2024-05-09T12:56:28.243Z,22.70
2024-05-09T12:59:11.751Z,22.50
2024-05-09T13:01:43.361Z,22.40
2024-05-09T13:04:14.022Z,22.30
2024-05-09T13:06:47.408Z,22.30
2024-05-09T13:09:18.052Z,22.30
2024-05-09T13:11:49.915Z,22.30
2024-05-09T13:14:21.640Z,22.30
2024-05-09T13:16:56.254Z,22.20
2024-05-09T13:19:27.078Z,22.20
2024-05-09T13:21:58.058Z,22.20
2024-05-09T13:24:28.799Z,22.10
2024-05-09T13:26:59.536Z,22.10
2024-05-09T13:29:30.240Z,22.10
2024-05-09T13:32:00.906Z,22.10
2024-05-09T13:35:13.630Z,22.10
2024-05-09T13:37:48.216Z,22.10
2024-05-09T13:40:31.761Z,22.10
2024-05-09T13:43:07.891Z,22.10
2024-05-09T13:45:38.492Z,22.10
2024-05-09T13:48:14.137Z,22.00
2024-05-09T13:50:45.017Z,22.00
2024-05-09T13:53:15.672Z,22.10
2024-05-09T13:55:46.274Z,22.00
2024-05-09T13:58:16.977Z,22.10
2024-05-09T14:00:49.649Z,22.10
2024-05-09T14:03:21.813Z,22.00
2024-05-09T14:05:52.984Z,22.00
2024-05-09T14:08:26.996Z,21.90
2024-05-09T14:11:04.939Z,22.00
2024-05-09T14:13:39.799Z,21.90
2024-05-09T14:16:12.463Z,21.90
2024-05-09T14:18:46.841Z,21.80
2024-05-09T14:21:23.643Z,21.90
2024-05-09T14:23:57.662Z,21.90
2024-05-09T14:26:28.287Z,22.00
2024-05-09T14:28:58.876Z,21.90
2024-05-09T14:31:29.520Z,21.90
2024-05-09T14:34:04.734Z,21.90
2024-05-09T14:36:36.563Z,21.80
2024-05-09T14:39:08.821Z,21.80
2024-05-09T14:41:41.134Z,21.80
2024-05-09T14:44:14.728Z,21.70
2024-05-09T14:46:45.567Z,21.70
2024-05-09T14:49:19.354Z,21.70
2024-05-09T14:51:50.766Z,21.70
2024-05-09T14:54:21.304Z,21.50
2024-05-09T14:56:52.047Z,21.40
2024-05-09T14:59:23.462Z,21.50
2024-05-09T15:01:54.030Z,21.40
2024-05-09T15:04:27.690Z,21.30
2024-05-09T15:06:58.790Z,21.30
2024-05-09T15:09:30.260Z,21.20
2024-05-09T15:12:00.738Z,21.20
2024-05-09T15:14:37.788Z,21.10
2024-05-09T15:17:08.442Z,21.10
2024-05-09T15:19:42.484Z,21.10
2024-05-09T15:22:18.529Z,21.10
2024-05-09T15:24:50.128Z,21.10
2024-05-09T15:27:21.663Z,21.10
2024-05-09T15:29:52.152Z,21.00
2024-05-09T15:32:22.753Z,21.00
2024-05-09T15:34:53.336Z,21.10
2024-05-09T15:37:24.658Z,21.00
2024-05-09T15:39:56.313Z,21.10
2024-05-09T15:42:28.107Z,21.00
2024-05-09T15:44:58.617Z,21.10
2024-05-09T15:47:35.445Z,21.10
2024-05-09T15:50:14.754Z,21.10
2024-05-09T15:52:54.346Z,21.10
2024-05-09T15:55:26.899Z,21.10
2024-05-09T15:58:02.763Z,21.10
2024-05-09T16:00:39.477Z,21.00
2024-05-09T16:03:15.927Z,21.00
2024-05-09T16:05:48.324Z,21.00
2024-05-09T16:08:21.587Z,21.00
2024-05-09T16:10:52.394Z,21.00
2024-05-09T16:13:31.610Z,20.90
2024-05-09T16:16:08.990Z,21.00
2024-05-09T16:18:41.065Z,21.00
2024-05-09T16:21:15.314Z,20.90
2024-05-09T16:23:45.770Z,20.90
2024-05-09T16:26:19.404Z,20.90
2024-05-09T16:28:50.691Z,20.90
2024-05-09T16:31:21.219Z,20.80
2024-05-09T16:33:51.846Z,20.60
2024-05-09T16:36:23.351Z,20.70
2024-05-09T16:38:53.743Z,20.70
2024-05-09T16:41:26.514Z,20.70
2024-05-09T16:43:57.183Z,20.70
2024-05-09T16:46:30.163Z,20.70
2024-05-09T16:49:00.755Z,20.70
2024-05-09T16:51:31.293Z,20.70
2024-05-09T16:54:01.723Z,20.80
2024-05-09T16:56:33.078Z,20.80
2024-05-09T16:59:03.574Z,20.80
2024-05-09T17:01:37.650Z,20.70
2024-05-09T17:04:08.449Z,20.80
2024-05-09T17:06:39.195Z,20.70
2024-05-09T17:09:11.993Z,20.70
2024-05-09T17:11:48.233Z,20.70
2024-05-09T17:14:21.122Z,20.70
2024-05-09T17:16:53.119Z,20.70
2024-05-09T17:19:23.732Z,20.70
2024-05-09T17:21:54.535Z,20.60
2024-05-09T17:24:24.925Z,20.60
2024-05-09T17:26:55.372Z,20.40
2024-05-09T17:29:25.980Z,20.50
2024-05-09T17:31:57.199Z,20.60
2024-05-09T17:34:28.331Z,20.60
2024-05-09T17:36:59.762Z,20.50
2024-05-09T17:39:30.302Z,20.50
2024-05-09T17:42:02.493Z,20.50
2024-05-09T17:44:32.842Z,20.30
2024-05-09T17:47:04.168Z,20.40
2024-05-09T17:49:34.683Z,20.40
2024-05-09T17:52:05.225Z,20.30
2024-05-09T17:54:35.630Z,20.30
2024-05-09T17:57:06.087Z,20.40
2024-05-09T17:59:36.443Z,20.40
2024-05-09T18:02:07.028Z,20.30
2024-05-09T18:04:37.538Z,20.30
2024-05-09T18:07:08.243Z,20.40
2024-05-09T18:09:38.727Z,20.40
2024-05-09T18:12:09.862Z,20.40
2024-05-09T18:14:40.775Z,20.50
2024-05-09T18:17:15.504Z,20.50
2024-05-09T18:19:46.019Z,20.40
2024-05-09T18:22:16.567Z,20.30
2024-05-09T18:24:47.188Z,20.30
2024-05-09T18:27:17.677Z,20.20
2024-05-09T18:29:48.591Z,20.10
2024-05-09T18:32:19.052Z,20.10
2024-05-09T18:34:50.384Z,20.20
2024-05-09T18:37:20.856Z,20.20
2024-05-09T18:39:52.135Z,20.20
2024-05-09T18:42:22.528Z,20.30
2024-05-09T18:44:56.947Z,20.30
2024-05-09T18:47:27.532Z,20.30
2024-05-09T18:49:58.850Z,20.30
2024-05-09T18:52:29.249Z,20.40
2024-05-09T18:55:01.945Z,20.30
2024-05-09T18:57:32.532Z,20.30
2024-05-09T19:00:04.209Z,20.40
2024-05-09T19:02:36.012Z,20.30
2024-05-09T19:05:06.888Z,20.30
2024-05-09T19:07:37.447Z,20.40
2024-05-09T19:10:21.514Z,20.40
2024-05-09T19:12:53.224Z,20.30
2024-05-09T19:15:24.621Z,20.20
2024-05-09T19:17:58.089Z,20.10
2024-05-09T19:20:33.658Z,20.20
2024-05-09T19:23:06.773Z,20.10
2024-05-09T19:25:38.125Z,20.10
2024-05-09T19:28:09.018Z,20.20
2024-05-09T19:30:42.374Z,20.10
2024-05-09T19:33:14.855Z,20.10
2024-05-09T19:35:45.999Z,20.00
2024-05-09T19:38:16.477Z,20.10
2024-05-09T19:40:47.227Z,20.20
2024-05-09T19:43:18.261Z,20.30
2024-05-09T19:45:49.193Z,20.30
2024-05-09T19:48:19.916Z,20.40
2024-05-09T19:50:53.102Z,20.30
2024-05-09T19:53:23.807Z,20.30
2024-05-09T19:55:54.225Z,20.10
2024-05-09T19:58:24.784Z,20.10
2024-05-09T20:00:55.321Z,20.10
2024-05-09T20:03:26.726Z,20.10
2024-05-09T20:05:57.106Z,20.20
2024-05-09T20:08:27.498Z,20.30
2024-05-09T20:10:58.730Z,20.30
2024-05-09T20:13:29.194Z,20.00
2024-05-09T20:16:03.399Z,20.00
2024-05-09T20:18:39.015Z,20.00
2024-05-09T20:21:09.625Z,19.90
2024-05-09T20:23:40.007Z,20.00
2024-05-09T20:26:11.194Z,19.90
2024-05-09T20:28:42.441Z,20.00
2024-05-09T20:31:12.866Z,20.00
2024-05-09T20:33:43.395Z,19.90
2024-05-09T20:36:13.871Z,19.80
2024-05-09T20:38:44.472Z,19.70
2024-05-09T20:41:14.871Z,19.70
2024-05-09T20:43:51.894Z,19.80
2024-05-09T20:46:22.405Z,19.80
2024-05-09T20:48:53.747Z,19.80
2024-05-09T20:51:24.214Z,19.70
2024-05-09T20:53:55.363Z,19.70
2024-05-09T20:56:26.136Z,19.80
2024-05-09T20:58:57.296Z,19.70
2024-05-09T21:01:27.855Z,19.80
2024-05-09T21:03:58.512Z,19.80
2024-05-09T21:06:28.983Z,19.80
2024-05-09T21:09:01.462Z,19.80
2024-05-09T21:11:31.929Z,19.70
2024-05-09T21:14:02.958Z,19.70
2024-05-09T21:16:36.140Z,19.80
2024-05-09T21:19:06.702Z,19.70
2024-05-09T21:21:44.140Z,19.60
2024-05-09T21:24:14.758Z,19.60
2024-05-09T21:26:51.594Z,19.60
2024-05-09T21:29:22.891Z,19.60
2024-05-09T21:31:53.367Z,19.50
2024-05-09T21:34:24.772Z,19.50
2024-05-09T21:36:55.269Z,19.40
2024-05-09T21:39:28.477Z,19.40
2024-05-09T21:42:03.705Z,19.30
2024-05-09T21:44:35.061Z,19.30
2024-05-09T21:47:05.716Z,19.30
2024-05-09T21:49:36.340Z,19.30
2024-05-09T21:52:07.190Z,19.20
2024-05-09T21:54:37.805Z,19.30
2024-05-09T21:57:09.906Z,19.10
2024-05-09T21:59:42.471Z,19.10
2024-05-09T22:02:14.771Z,19.10
2024-05-09T22:04:45.429Z,18.90
2024-05-09T22:07:16.160Z,18.90
2024-05-09T22:09:51.994Z,18.90
2024-05-09T22:12:22.421Z,18.90
2024-05-09T22:14:55.910Z,18.90
2024-05-09T22:17:28.513Z,19.00
2024-05-09T22:19:59.110Z,19.00
2024-05-09T22:22:29.499Z,19.00
2024-05-09T22:25:00.007Z,19.10
2024-05-09T22:27:30.584Z,19.10
2024-05-09T22:30:05.218Z,19.20
2024-05-09T22:32:37.426Z,19.10
2024-05-09T22:35:10.885Z,19.10
2024-05-09T22:37:41.400Z,19.20
2024-05-09T22:40:23.861Z,19.20
2024-05-09T22:42:59.578Z,19.20
2024-05-09T22:45:30.797Z,19.30
2024-05-09T22:48:01.528Z,19.30
2024-05-09T22:50:34.022Z,19.20
2024-05-09T22:53:04.588Z,19.30
2024-05-09T22:55:35.272Z,19.30
2024-05-09T22:58:05.722Z,19.30
2024-05-09T23:00:37.380Z,19.20
2024-05-09T23:03:08.373Z,19.20
2024-05-09T23:05:39.693Z,19.10
2024-05-09T23:08:10.871Z,19.10
2024-05-09T23:10:42.992Z,19.10
2024-05-09T23:13:13.503Z,19.20
2024-05-09T23:15:44.512Z,19.20
2024-05-09T23:18:15.408Z,19.10
2024-05-09T23:20:46.939Z,19.10
2024-05-09T23:23:17.399Z,19.10
2024-05-09T23:25:49.510Z,19.10
2024-05-09T23:28:19.919Z,19.10
2024-05-09T23:30:53.654Z,19.10
2024-05-09T23:33:27.883Z,19.00
2024-05-09T23:36:03.815Z,19.10
2024-05-09T23:38:34.267Z,19.10
2024-05-09T23:41:04.816Z,19.00
2024-05-09T23:43:35.660Z,19.00
2024-05-09T23:46:06.355Z,19.00
2024-05-09T23:48:37.100Z,19.00
2024-05-09T23:51:07.763Z,19.00
2024-05-09T23:53:38.168Z,19.00
2024-05-09T23:56:09.210Z,18.90
2024-05-09T23:58:39.571Z,18.70
